sensor_id;sensor_type;location;lat;lon;timestamp;pressure;altitude;pressure_sealevel;temperature;humidity
64078;BME280;51039;49.696;10.808;2023-03-01T00:00:49;99358.09;;;-2.19;78.59
64078;BME280;51039;49.696;10.808;2023-03-01T00:03:15;99350.41;;;-2.20;78.58
64078;BME280;51039;49.696;10.808;2023-03-01T00:05:44;99355.97;;;-2.26;78.98
64078;BME280;51039;49.696;10.808;2023-03-01T00:08:10;99353.78;;;-2.32;79.47
64078;BME280;51039;49.696;10.808;2023-03-01T00:10:36;99348.59;;;-2.32;79.37
64078;BME280;51039;49.696;10.808;2023-03-01T00:13:01;99346.91;;;-2.33;79.42
64078;BME280;51039;49.696;10.808;2023-03-01T00:15:26;99345.03;;;-2.31;79.47
64078;BME280;51039;49.696;10.808;2023-03-01T00:17:51;99342.53;;;-2.33;79.65
64078;BME280;51039;49.696;10.808;2023-03-01T00:20:17;99343.19;;;-2.29;79.55
64078;BME280;51039;49.696;10.808;2023-03-01T00:22:42;99345.78;;;-2.29;79.28
64078;BME280;51039;49.696;10.808;2023-03-01T00:25:08;99350.97;;;-2.29;79.28
64078;BME280;51039;49.696;10.808;2023-03-01T00:27:34;99341.72;;;-2.33;79.64
64078;BME280;51039;49.696;10.808;2023-03-01T00:29:59;99337.56;;;-2.36;79.50
64078;BME280;51039;49.696;10.808;2023-03-01T00:32:24;99342.94;;;-2.39;79.68
64078;BME280;51039;49.696;10.808;2023-03-01T00:34:50;99336.00;;;-2.39;79.50
64078;BME280;51039;49.696;10.808;2023-03-01T00:37:22;99333.97;;;-2.48;79.69
64078;BME280;51039;49.696;10.808;2023-03-01T00:39:48;99320.28;;;-2.50;79.56
64078;BME280;51039;49.696;10.808;2023-03-01T00:42:14;99325.56;;;-2.51;79.93
64078;BME280;51039;49.696;10.808;2023-03-01T00:44:40;99328.06;;;-2.50;80.12
64078;BME280;51039;49.696;10.808;2023-03-01T00:47:06;99317.78;;;-2.51;79.55
64078;BME280;51039;49.696;10.808;2023-03-01T00:49:31;99326.47;;;-2.52;80.12
64078;BME280;51039;49.696;10.808;2023-03-01T00:51:56;99324.72;;;-2.52;79.97
64078;BME280;51039;49.696;10.808;2023-03-01T00:54:22;99323.03;;;-2.53;79.85
64078;BME280;51039;49.696;10.808;2023-03-01T00:56:47;99322.97;;;-2.51;79.76
64078;BME280;51039;49.696;10.808;2023-03-01T00:59:12;99321.28;;;-2.52;80.20
64078;BME280;51039;49.696;10.808;2023-03-01T01:01:37;99314.88;;;-2.47;79.91
64078;BME280;51039;49.696;10.808;2023-03-01T01:04:04;99312.50;;;-2.50;79.76
64078;BME280;51039;49.696;10.808;2023-03-01T01:06:33;99311.53;;;-2.49;79.89
64078;BME280;51039;49.696;10.808;2023-03-01T01:09:10;99311.75;;;-2.52;79.61
64078;BME280;51039;49.696;10.808;2023-03-01T01:11:41;99300.81;;;-2.57;79.75
64078;BME280;51039;49.696;10.808;2023-03-01T01:14:07;99294.09;;;-2.60;80.11
64078;BME280;51039;49.696;10.808;2023-03-01T01:16:32;99292.31;;;-2.59;79.84
64078;BME280;51039;49.696;10.808;2023-03-01T01:18:58;99298.53;;;-2.62;79.85
64078;BME280;51039;49.696;10.808;2023-03-01T01:21:24;99282.13;;;-2.62;80.17
64078;BME280;51039;49.696;10.808;2023-03-01T01:23:50;99280.47;;;-2.63;80.17
64078;BME280;51039;49.696;10.808;2023-03-01T01:26:17;99281.19;;;-2.61;79.83
64078;BME280;51039;49.696;10.808;2023-03-01T01:28:44;99276.75;;;-2.59;80.16
64078;BME280;51039;49.696;10.808;2023-03-01T01:31:10;99274.34;;;-2.62;80.22
64078;BME280;51039;49.696;10.808;2023-03-01T01:33:35;99279.72;;;-2.65;80.41
64078;BME280;51039;49.696;10.808;2023-03-01T01:36:02;99283.59;;;-2.58;79.51
64078;BME280;51039;49.696;10.808;2023-03-01T01:38:28;99283.59;;;-2.58;79.37
64078;BME280;51039;49.696;10.808;2023-03-01T01:40:53;99278.41;;;-2.58;79.00
64078;BME280;51039;49.696;10.808;2023-03-01T01:43:20;99275.63;;;-2.55;78.86
64078;BME280;51039;49.696;10.808;2023-03-01T01:45:48;99271.16;;;-2.53;78.79
64078;BME280;51039;49.696;10.808;2023-03-01T01:48:18;99267.66;;;-2.52;78.51
64078;BME280;51039;49.696;10.808;2023-03-01T01:50:49;99265.25;;;-2.55;78.56
64078;BME280;51039;49.696;10.808;2023-03-01T01:53:20;99265.44;;;-2.58;78.62
64078;BME280;51039;49.696;10.808;2023-03-01T01:55:48;99262.97;;;-2.60;78.59
64078;BME280;51039;49.696;10.808;2023-03-01T01:58:19;99256.19;;;-2.62;78.66
64078;BME280;51039;49.696;10.808;2023-03-01T02:00:46;99253.88;;;-2.67;78.71
64078;BME280;51039;49.696;10.808;2023-03-01T02:03:14;99253.25;;;-2.70;79.08
64078;BME280;51039;49.696;10.808;2023-03-01T02:05:48;99255.41;;;-2.77;79.49
64078;BME280;51039;49.696;10.808;2023-03-01T02:08:19;99253.63;;;-2.77;79.64
64078;BME280;51039;49.696;10.808;2023-03-01T02:10:46;99254.56;;;-2.78;79.46
64078;BME280;51039;49.696;10.808;2023-03-01T02:13:14;99246.03;;;-2.80;79.54
64078;BME280;51039;49.696;10.808;2023-03-01T02:15:39;99245.22;;;-2.80;79.74
64078;BME280;51039;49.696;10.808;2023-03-01T02:18:06;99241.88;;;-2.82;79.50
64078;BME280;51039;49.696;10.808;2023-03-01T02:23:15;99241.53;;;-2.90;80.26
64078;BME280;51039;49.696;10.808;2023-03-01T02:28:33;99232.00;;;-2.90;80.63
64078;BME280;51039;49.696;10.808;2023-03-01T02:31:05;99231.06;;;-2.89;80.47
64078;BME280;51039;49.696;10.808;2023-03-01T02:33:51;99227.38;;;-2.85;80.33
64078;BME280;51039;49.696;10.808;2023-03-01T02:36:22;99221.25;;;-2.84;80.23
64078;BME280;51039;49.696;10.808;2023-03-01T02:38:52;99226.72;;;-2.88;80.93
64078;BME280;51039;49.696;10.808;2023-03-01T02:41:21;99228.47;;;-2.89;80.96
64078;BME280;51039;49.696;10.808;2023-03-01T02:43:48;99221.53;;;-2.88;81.01
64078;BME280;51039;49.696;10.808;2023-03-01T02:46:15;99218.81;;;-2.87;80.32
64078;BME280;51039;49.696;10.808;2023-03-01T02:48:46;99215.31;;;-2.86;80.39
64078;BME280;51039;49.696;10.808;2023-03-01T02:54:08;99216.78;;;-2.82;80.15
64078;BME280;51039;49.696;10.808;2023-03-01T02:56:46;99216.06;;;-2.84;79.86
64078;BME280;51039;49.696;10.808;2023-03-01T02:59:16;99215.41;;;-2.87;79.91
64078;BME280;51039;49.696;10.808;2023-03-01T03:01:44;99205.34;;;-2.92;79.93
64078;BME280;51039;49.696;10.808;2023-03-01T03:04:11;99203.47;;;-2.90;80.01
64078;BME280;51039;49.696;10.808;2023-03-01T03:06:43;99199.94;;;-2.89;80.06
64078;BME280;51039;49.696;10.808;2023-03-01T03:09:13;99202.00;;;-2.94;80.16
64078;BME280;51039;49.696;10.808;2023-03-01T03:11:39;99200.91;;;-3.04;80.29
64078;BME280;51039;49.696;10.808;2023-03-01T03:14:05;99195.84;;;-3.06;80.51
64078;BME280;51039;49.696;10.808;2023-03-01T03:16:50;99193.13;;;-3.04;80.54
64078;BME280;51039;49.696;10.808;2023-03-01T03:19:16;99194.47;;;-3.11;80.28
64078;BME280;51039;49.696;10.808;2023-03-01T03:21:43;99194.72;;;-3.16;80.61
64078;BME280;51039;49.696;10.808;2023-03-01T03:24:08;99188.06;;;-3.20;81.02
64078;BME280;51039;49.696;10.808;2023-03-01T03:26:34;99189.63;;;-3.18;81.03
64078;BME280;51039;49.696;10.808;2023-03-01T03:28:59;99189.75;;;-3.19;80.91
64078;BME280;51039;49.696;10.808;2023-03-01T03:31:25;99195.84;;;-3.20;81.45
64078;BME280;51039;49.696;10.808;2023-03-01T03:33:50;99194.09;;;-3.20;81.30
64078;BME280;51039;49.696;10.808;2023-03-01T03:36:16;99189.84;;;-3.21;81.43
64078;BME280;51039;49.696;10.808;2023-03-01T03:38:43;99189.84;;;-3.21;80.93
64078;BME280;51039;49.696;10.808;2023-03-01T03:41:10;99188.81;;;-3.18;81.14
64078;BME280;51039;49.696;10.808;2023-03-01T03:43:37;99183.84;;;-3.21;81.06
64078;BME280;51039;49.696;10.808;2023-03-01T03:46:05;99189.19;;;-3.24;81.17
64078;BME280;51039;49.696;10.808;2023-03-01T03:48:32;99190.09;;;-3.25;81.43
64078;BME280;51039;49.696;10.808;2023-03-01T03:50:58;99186.16;;;-3.31;81.33
64078;BME280;51039;49.696;10.808;2023-03-01T03:53:24;99181.16;;;-3.34;81.66
64078;BME280;51039;49.696;10.808;2023-03-01T03:55:52;99187.25;;;-3.35;81.90
64078;BME280;51039;49.696;10.808;2023-03-01T03:58:18;99184.78;;;-3.37;81.77
64078;BME280;51039;49.696;10.808;2023-03-01T04:00:46;99183.94;;;-3.37;81.90
64078;BME280;51039;49.696;10.808;2023-03-01T04:03:14;99186.53;;;-3.37;81.92
64078;BME280;51039;49.696;10.808;2023-03-01T04:05:41;99186.00;;;-3.42;82.08
64078;BME280;51039;49.696;10.808;2023-03-01T04:08:06;99173.94;;;-3.43;82.04
64078;BME280;51039;49.696;10.808;2023-03-01T04:10:33;99183.56;;;-3.45;82.31
64078;BME280;51039;49.696;10.808;2023-03-01T04:13:01;99171.28;;;-3.42;82.17
64078;BME280;51039;49.696;10.808;2023-03-01T04:15:26;99181.72;;;-3.43;82.39
64078;BME280;51039;49.696;10.808;2023-03-01T04:17:53;99175.63;;;-3.42;82.19
64078;BME280;51039;49.696;10.808;2023-03-01T04:20:20;99174.78;;;-3.43;82.30
64078;BME280;51039;49.696;10.808;2023-03-01T04:23:01;99175.63;;;-3.42;82.24
64078;BME280;51039;49.696;10.808;2023-03-01T04:25:35;99179.94;;;-3.43;82.18
64078;BME280;51039;49.696;10.808;2023-03-01T04:31:19;99180.25;;;-3.47;81.88
64078;BME280;51039;49.696;10.808;2023-03-01T04:33:47;99176.44;;;-3.42;82.08
64078;BME280;51039;49.696;10.808;2023-03-01T04:36:16;99180.59;;;-3.39;81.71
64078;BME280;51039;49.696;10.808;2023-03-01T04:38:43;99171.09;;;-3.39;81.74
64078;BME280;51039;49.696;10.808;2023-03-01T04:41:12;99182.44;;;-3.41;81.63
64078;BME280;51039;49.696;10.808;2023-03-01T04:43:39;99187.63;;;-3.41;81.89
64078;BME280;51039;49.696;10.808;2023-03-01T04:46:06;99182.44;;;-3.41;81.89
64078;BME280;51039;49.696;10.808;2023-03-01T04:48:34;99186.00;;;-3.42;81.96
64078;BME280;51039;49.696;10.808;2023-03-01T04:51:03;99190.13;;;-3.40;81.79
64078;BME280;51039;49.696;10.808;2023-03-01T04:53:30;99195.31;;;-3.40;81.70
64078;BME280;51039;49.696;10.808;2023-03-01T04:55:57;99184.78;;;-3.37;81.47
64078;BME280;51039;49.696;10.808;2023-03-01T04:58:23;99194.41;;;-3.39;81.39
64078;BME280;51039;49.696;10.808;2023-03-01T05:00:50;99193.28;;;-3.49;81.94
64078;BME280;51039;49.696;10.808;2023-03-01T05:03:16;99186.97;;;-3.45;81.68
64078;BME280;51039;49.696;10.808;2023-03-01T05:05:45;99193.28;;;-3.49;81.67
64078;BME280;51039;49.696;10.808;2023-03-01T05:08:12;99198.38;;;-3.47;81.64
64078;BME280;51039;49.696;10.808;2023-03-01T05:10:43;99199.56;;;-3.53;82.14
64078;BME280;51039;49.696;10.808;2023-03-01T05:13:11;99197.94;;;-3.54;82.24
64078;BME280;51039;49.696;10.808;2023-03-01T05:15:38;99191.72;;;-3.51;82.17
64078;BME280;51039;49.696;10.808;2023-03-01T05:18:04;99195.06;;;-3.49;81.65
64078;BME280;51039;49.696;10.808;2023-03-01T05:20:36;99188.09;;;-3.49;81.85
64078;BME280;51039;49.696;10.808;2023-03-01T05:23:02;99187.19;;;-3.48;81.71
64078;BME280;51039;49.696;10.808;2023-03-01T05:25:30;99195.06;;;-3.49;81.85
64078;BME280;51039;49.696;10.808;2023-03-01T05:27:59;99193.38;;;-3.50;82.00
64078;BME280;51039;49.696;10.808;2023-03-01T05:30:29;99179.69;;;-3.52;81.67
64078;BME280;51039;49.696;10.808;2023-03-01T05:32:55;99177.09;;;-3.52;81.94
64078;BME280;51039;49.696;10.808;2023-03-01T05:35:20;99175.34;;;-3.52;81.92
64078;BME280;51039;49.696;10.808;2023-03-01T05:37:47;99182.41;;;-3.54;82.04
64078;BME280;51039;49.696;10.808;2023-03-01T05:40:23;99177.69;;;-3.62;82.09
64078;BME280;51039;49.696;10.808;2023-03-01T05:42:50;99178.75;;;-3.66;82.53
64078;BME280;51039;49.696;10.808;2023-03-01T05:45:18;99172.75;;;-3.66;82.71
64078;BME280;51039;49.696;10.808;2023-03-01T05:47:45;99172.59;;;-3.63;82.56
64078;BME280;51039;49.696;10.808;2023-03-01T05:52:44;99171.56;;;-3.61;82.01
64078;BME280;51039;49.696;10.808;2023-03-01T05:55:13;99169.06;;;-3.62;82.04
64078;BME280;51039;49.696;10.808;2023-03-01T05:57:43;99175.34;;;-3.66;81.87
64078;BME280;51039;49.696;10.808;2023-03-01T06:00:09;99174.69;;;-3.70;82.21
64078;BME280;51039;49.696;10.808;2023-03-01T06:02:35;99170.47;;;-3.71;82.14
64078;BME280;51039;49.696;10.808;2023-03-01T06:05:00;99166.00;;;-3.83;82.32
64078;BME280;51039;49.696;10.808;2023-03-01T06:07:26;99177.66;;;-3.76;82.30
64078;BME280;51039;49.696;10.808;2023-03-01T06:09:51;99165.44;;;-3.74;82.42
64078;BME280;51039;49.696;10.808;2023-03-01T06:12:16;99173.78;;;-3.69;82.25
64078;BME280;51039;49.696;10.808;2023-03-01T06:14:42;99174.44;;;-3.65;82.10
64078;BME280;51039;49.696;10.808;2023-03-01T06:17:07;99167.03;;;-3.57;82.24
64078;BME280;51039;49.696;10.808;2023-03-01T06:19:32;99172.31;;;-3.44;81.86
64078;BME280;51039;49.696;10.808;2023-03-01T06:21:58;99176.16;;;-3.37;81.42
64078;BME280;51039;49.696;10.808;2023-03-01T06:24:23;99169.03;;;-3.33;81.27
64078;BME280;51039;49.696;10.808;2023-03-01T06:26:48;99171.25;;;-3.27;80.99
64078;BME280;51039;49.696;10.808;2023-03-01T06:29:14;99170.50;;;-3.29;81.05
64078;BME280;51039;49.696;10.808;2023-03-01T06:31:39;99170.97;;;-3.23;80.94
64078;BME280;51039;49.696;10.808;2023-03-01T06:34:04;99170.69;;;-3.18;80.69
64078;BME280;51039;49.696;10.808;2023-03-01T06:36:30;99169.66;;;-3.16;80.62
64078;BME280;51039;49.696;10.808;2023-03-01T06:38:55;99167.22;;;-3.04;80.51
64078;BME280;51039;49.696;10.808;2023-03-01T06:41:20;99158.34;;;-3.00;80.08
64078;BME280;51039;49.696;10.808;2023-03-01T06:43:46;99157.22;;;-2.96;79.72
64078;BME280;51039;49.696;10.808;2023-03-01T06:46:11;99160.88;;;-2.86;79.50
64078;BME280;51039;49.696;10.808;2023-03-01T06:48:36;99160.69;;;-2.83;79.14
64078;BME280;51039;49.696;10.808;2023-03-01T06:51:02;99166.69;;;-2.82;78.92
64078;BME280;51039;49.696;10.808;2023-03-01T06:53:28;99161.84;;;-2.74;78.95
64078;BME280;51039;49.696;10.808;2023-03-01T06:55:57;99156.31;;;-2.55;78.00
64078;BME280;51039;49.696;10.808;2023-03-01T06:58:24;99154.66;;;-2.43;77.66
64078;BME280;51039;49.696;10.808;2023-03-01T07:00:50;99152.84;;;-2.28;77.41
64078;BME280;51039;49.696;10.808;2023-03-01T07:03:15;99142.47;;;-2.15;79.81
64078;BME280;51039;49.696;10.808;2023-03-01T07:05:40;99152.34;;;-1.20;88.40
64078;BME280;51039;49.696;10.808;2023-03-01T07:08:06;99146.88;;;-0.80;83.66
64078;BME280;51039;49.696;10.808;2023-03-01T07:10:31;99139.59;;;-0.74;77.21
64078;BME280;51039;49.696;10.808;2023-03-01T07:12:57;99143.31;;;-0.90;74.30
64078;BME280;51039;49.696;10.808;2023-03-01T07:15:23;99145.09;;;-0.79;72.78
64078;BME280;51039;49.696;10.808;2023-03-01T07:17:50;99136.97;;;-0.74;72.82
64078;BME280;51039;49.696;10.808;2023-03-01T07:20:15;99144.13;;;-0.65;72.56
64078;BME280;51039;49.696;10.808;2023-03-01T07:22:41;99137.84;;;-0.38;71.57
64078;BME280;51039;49.696;10.808;2023-03-01T07:25:07;99136.81;;;-0.25;71.43
64078;BME280;51039;49.696;10.808;2023-03-01T07:27:34;99135.69;;;-0.33;71.50
64078;BME280;51039;49.696;10.808;2023-03-01T07:29:59;99133.31;;;-0.48;71.90
64078;BME280;51039;49.696;10.808;2023-03-01T07:32:24;99133.34;;;-0.36;71.16
64078;BME280;51039;49.696;10.808;2023-03-01T07:34:50;99128.00;;;-0.35;70.38
64078;BME280;51039;49.696;10.808;2023-03-01T07:37:16;99128.03;;;-0.24;70.18
64078;BME280;51039;49.696;10.808;2023-03-01T07:39:41;99129.47;;;-0.31;70.43
64078;BME280;51039;49.696;10.808;2023-03-01T07:42:07;99140.13;;;-0.23;70.39
64078;BME280;51039;49.696;10.808;2023-03-01T07:44:33;99126.56;;;-0.04;69.76
64078;BME280;51039;49.696;10.808;2023-03-01T07:46:59;99131.88;;;0.40;68.02
64078;BME280;51039;49.696;10.808;2023-03-01T07:49:25;99139.97;;;1.47;64.58
64078;BME280;51039;49.696;10.808;2023-03-01T07:51:51;99127.59;;;2.43;60.90
64078;BME280;51039;49.696;10.808;2023-03-01T07:54:16;99121.56;;;2.52;59.64
64078;BME280;51039;49.696;10.808;2023-03-01T07:56:43;99128.84;;;2.89;58.66
64078;BME280;51039;49.696;10.808;2023-03-01T07:59:08;99125.03;;;3.32;56.83
64078;BME280;51039;49.696;10.808;2023-03-01T08:01:34;99121.41;;;3.13;57.03
64078;BME280;51039;49.696;10.808;2023-03-01T08:03:59;99120.59;;;3.62;56.44
64078;BME280;51039;49.696;10.808;2023-03-01T08:06:24;99117.81;;;3.83;55.88
64078;BME280;51039;49.696;10.808;2023-03-01T08:08:50;99110.94;;;3.82;55.58
64078;BME280;51039;49.696;10.808;2023-03-01T08:11:15;99112.03;;;4.26;54.81
64078;BME280;51039;49.696;10.808;2023-03-01T08:13:41;99108.84;;;4.32;54.18
64078;BME280;51039;49.696;10.808;2023-03-01T08:16:09;99106.81;;;3.79;53.91
64078;BME280;51039;49.696;10.808;2023-03-01T08:18:36;99097.63;;;4.03;53.94
64078;BME280;51039;49.696;10.808;2023-03-01T08:21:02;99099.69;;;4.09;53.29
64078;BME280;51039;49.696;10.808;2023-03-01T08:23:32;99098.94;;;4.54;51.96
64078;BME280;51039;49.696;10.808;2023-03-01T08:26:08;99090.06;;;4.37;51.85
64078;BME280;51039;49.696;10.808;2023-03-01T08:28:41;99095.00;;;4.40;51.82
64078;BME280;51039;49.696;10.808;2023-03-01T08:33:50;99086.63;;;4.64;51.64
64078;BME280;51039;49.696;10.808;2023-03-01T08:36:20;99093.81;;;4.62;51.47
64078;BME280;51039;49.696;10.808;2023-03-01T08:38:46;99096.09;;;4.47;51.15
64078;BME280;51039;49.696;10.808;2023-03-01T08:41:11;99093.19;;;4.13;51.99
64078;BME280;51039;49.696;10.808;2023-03-01T08:43:36;99096.09;;;4.47;51.27
64078;BME280;51039;49.696;10.808;2023-03-01T08:46:02;99088.97;;;5.03;50.46
64078;BME280;51039;49.696;10.808;2023-03-01T08:48:27;99085.69;;;5.81;49.12
64078;BME280;51039;49.696;10.808;2023-03-01T08:50:53;99081.00;;;6.19;48.16
64078;BME280;51039;49.696;10.808;2023-03-01T08:53:19;99072.84;;;6.39;47.05
64078;BME280;51039;49.696;10.808;2023-03-01T08:55:44;99069.56;;;6.02;47.45
64078;BME280;51039;49.696;10.808;2023-03-01T08:58:09;99067.38;;;6.24;47.62
64078;BME280;51039;49.696;10.808;2023-03-01T09:00:35;99061.84;;;6.35;45.93
64078;BME280;51039;49.696;10.808;2023-03-01T09:03:00;99059.28;;;5.91;47.40
64078;BME280;51039;49.696;10.808;2023-03-01T09:05:26;99057.84;;;6.23;47.15
64078;BME280;51039;49.696;10.808;2023-03-01T09:07:53;99057.59;;;6.42;46.96
64078;BME280;51039;49.696;10.808;2023-03-01T09:10:18;99050.75;;;6.23;46.82
64078;BME280;51039;49.696;10.808;2023-03-01T09:12:43;99057.03;;;6.31;46.15
64078;BME280;51039;49.696;10.808;2023-03-01T09:15:09;99044.19;;;5.93;46.67
64078;BME280;51039;49.696;10.808;2023-03-01T09:17:35;99048.56;;;5.84;47.12
64078;BME280;51039;49.696;10.808;2023-03-01T09:20:00;99046.47;;;6.14;46.61
64078;BME280;51039;49.696;10.808;2023-03-01T09:22:25;99049.13;;;6.22;46.09
64078;BME280;51039;49.696;10.808;2023-03-01T09:24:51;99052.81;;;6.38;45.64
64078;BME280;51039;49.696;10.808;2023-03-01T09:27:16;99053.44;;;6.91;43.75
64078;BME280;51039;49.696;10.808;2023-03-01T09:29:43;99043.06;;;6.30;45.58
64078;BME280;51039;49.696;10.808;2023-03-01T09:32:09;99036.63;;;6.16;45.93
64078;BME280;51039;49.696;10.808;2023-03-01T09:34:34;99040.53;;;6.12;46.59
64078;BME280;51039;49.696;10.808;2023-03-01T09:37:20;99040.84;;;6.60;45.28
64078;BME280;51039;49.696;10.808;2023-03-01T09:39:45;99042.78;;;6.41;46.19
64078;BME280;51039;49.696;10.808;2023-03-01T09:42:10;99033.44;;;6.47;45.40
64078;BME280;51039;49.696;10.808;2023-03-01T09:44:46;99037.66;;;5.97;45.94
64078;BME280;51039;49.696;10.808;2023-03-01T09:47:21;99038.63;;;5.96;46.59
64078;BME280;51039;49.696;10.808;2023-03-01T09:49:53;99040.91;;;5.91;46.57
64078;BME280;51039;49.696;10.808;2023-03-01T09:52:28;99035.63;;;6.25;46.29
64078;BME280;51039;49.696;10.808;2023-03-01T09:55:04;99036.91;;;6.64;46.00
64078;BME280;51039;49.696;10.808;2023-03-01T09:57:43;99037.59;;;6.23;45.68
64078;BME280;51039;49.696;10.808;2023-03-01T10:05:44;99021.72;;;7.08;44.13
64078;BME280;51039;49.696;10.808;2023-03-01T10:10:43;99011.75;;;6.69;44.27
64078;BME280;51039;49.696;10.808;2023-03-01T10:16:03;99006.22;;;7.05;44.41
64078;BME280;51039;49.696;10.808;2023-03-01T10:18:36;99006.22;;;7.05;43.05
64078;BME280;51039;49.696;10.808;2023-03-01T10:21:17;99007.84;;;6.74;44.19
64078;BME280;51039;49.696;10.808;2023-03-01T10:23:45;99003.91;;;6.78;43.74
64078;BME280;51039;49.696;10.808;2023-03-01T10:26:13;98991.06;;;7.16;43.40
64078;BME280;51039;49.696;10.808;2023-03-01T10:28:57;98985.78;;;7.16;43.27
64078;BME280;51039;49.696;10.808;2023-03-01T10:31:33;98986.47;;;7.26;42.91
64078;BME280;51039;49.696;10.808;2023-03-01T10:34:08;98975.28;;;7.24;42.76
64078;BME280;51039;49.696;10.808;2023-03-01T10:36:39;98982.66;;;6.79;43.51
64078;BME280;51039;49.696;10.808;2023-03-01T10:39:14;98978.84;;;6.65;44.03
64078;BME280;51039;49.696;10.808;2023-03-01T10:47:04;98963.41;;;7.20;42.54
64078;BME280;51039;49.696;10.808;2023-03-01T10:49:29;98950.72;;;7.32;42.67
64078;BME280;51039;49.696;10.808;2023-03-01T10:51:55;98968.47;;;7.46;42.63
64078;BME280;51039;49.696;10.808;2023-03-01T10:56:55;98958.09;;;7.44;42.65
64078;BME280;51039;49.696;10.808;2023-03-01T10:59:25;98949.19;;;7.54;42.61
64078;BME280;51039;49.696;10.808;2023-03-01T11:02:02;98945.50;;;7.71;42.27
64078;BME280;51039;49.696;10.808;2023-03-01T11:04:28;98942.31;;;7.92;41.71
64078;BME280;51039;49.696;10.808;2023-03-01T11:07:00;98941.91;;;7.64;42.38
64078;BME280;51039;49.696;10.808;2023-03-01T11:09:29;98933.94;;;7.80;41.78
64078;BME280;51039;49.696;10.808;2023-03-01T11:12:02;98938.13;;;8.06;42.17
64078;BME280;51039;49.696;10.808;2023-03-01T11:14:36;98926.38;;;8.17;41.12
64078;BME280;51039;49.696;10.808;2023-03-01T11:17:25;98934.19;;;8.02;41.18
64078;BME280;51039;49.696;10.808;2023-03-01T11:23:10;98920.59;;;7.10;43.07
64078;BME280;51039;49.696;10.808;2023-03-01T11:25:41;98903.38;;;7.46;42.84
64078;BME280;51039;49.696;10.808;2023-03-01T11:28:12;98907.16;;;7.52;42.01
64078;BME280;51039;49.696;10.808;2023-03-01T11:30:58;98901.59;;;7.47;42.83
64078;BME280;51039;49.696;10.808;2023-03-01T11:36:28;98888.72;;;7.60;42.21
64078;BME280;51039;49.696;10.808;2023-03-01T11:39:02;98881.00;;;7.51;42.75
64078;BME280;51039;49.696;10.808;2023-03-01T11:41:38;98878.09;;;7.21;43.12
64078;BME280;51039;49.696;10.808;2023-03-01T12:01:02;98851.06;;;7.27;43.98
64078;BME280;51039;49.696;10.808;2023-03-01T12:09:44;98839.13;;;7.00;43.79
64078;BME280;51039;49.696;10.808;2023-03-01T12:12:35;98825.72;;;7.18;43.72
64078;BME280;51039;49.696;10.808;2023-03-01T12:15:20;98814.25;;;7.02;43.20
64078;BME280;51039;49.696;10.808;2023-03-01T12:17:57;98808.53;;;6.99;44.34
64078;BME280;51039;49.696;10.808;2023-03-01T12:20:40;98818.88;;;7.08;45.16
64078;BME280;51039;49.696;10.808;2023-03-01T12:31:27;98805.50;;;7.18;44.33
64078;BME280;51039;49.696;10.808;2023-03-01T12:34:29;98800.91;;;7.12;44.23
64078;BME280;51039;49.696;10.808;2023-03-01T12:37:12;98798.09;;;7.14;44.54
64078;BME280;51039;49.696;10.808;2023-03-01T12:42:34;98794.75;;;7.28;44.79
64078;BME280;51039;49.696;10.808;2023-03-01T12:47:58;98784.25;;;7.20;44.20
64078;BME280;51039;49.696;10.808;2023-03-01T12:50:41;98787.34;;;7.23;44.66
64078;BME280;51039;49.696;10.808;2023-03-01T12:53:20;98776.19;;;7.13;44.82
64078;BME280;51039;49.696;10.808;2023-03-01T12:55:47;98768.25;;;7.21;45.03
64078;BME280;51039;49.696;10.808;2023-03-01T13:01:19;98768.94;;;7.15;44.51
64078;BME280;51039;49.696;10.808;2023-03-01T13:03:57;98756.13;;;7.04;44.75
64078;BME280;51039;49.696;10.808;2023-03-01T13:09:40;98763.00;;;7.21;45.24
64078;BME280;51039;49.696;10.808;2023-03-01T13:17:48;98764.13;;;7.27;45.54
64078;BME280;51039;49.696;10.808;2023-03-01T13:20:23;98745.69;;;7.27;45.91
64078;BME280;51039;49.696;10.808;2023-03-01T13:23:04;98750.72;;;7.37;45.34
64078;BME280;51039;49.696;10.808;2023-03-01T13:25:34;98757.13;;;7.42;45.20
64078;BME280;51039;49.696;10.808;2023-03-01T13:30:58;98756.00;;;7.37;45.57
64078;BME280;51039;49.696;10.808;2023-03-01T13:35:53;98751.22;;;7.40;45.29
64078;BME280;51039;49.696;10.808;2023-03-01T13:38:36;98744.66;;;7.36;45.82
64078;BME280;51039;49.696;10.808;2023-03-01T13:41:16;98742.81;;;7.45;46.35
64078;BME280;51039;49.696;10.808;2023-03-01T13:44:02;98743.53;;;7.31;45.46
64078;BME280;51039;49.696;10.808;2023-03-01T13:46:37;98736.22;;;7.41;46.60
64078;BME280;51039;49.696;10.808;2023-03-01T13:49:03;98739.84;;;7.40;46.12
64078;BME280;51039;49.696;10.808;2023-03-01T13:51:28;98730.94;;;7.41;46.61
64078;BME280;51039;49.696;10.808;2023-03-01T13:53:55;98730.59;;;7.44;46.27
64078;BME280;51039;49.696;10.808;2023-03-01T13:56:27;98725.34;;;7.44;46.56
64078;BME280;51039;49.696;10.808;2023-03-01T13:58:59;98721.66;;;7.53;46.78
64078;BME280;51039;49.696;10.808;2023-03-01T14:01:28;98724.53;;;7.43;46.71
64078;BME280;51039;49.696;10.808;2023-03-01T14:03:55;98715.81;;;7.35;46.99
64078;BME280;51039;49.696;10.808;2023-03-01T14:06:22;98726.19;;;7.36;47.18
64078;BME280;51039;49.696;10.808;2023-03-01T14:08:52;98695.53;;;7.43;47.10
64078;BME280;51039;49.696;10.808;2023-03-01T14:14:26;98713.97;;;7.43;47.57
64078;BME280;51039;49.696;10.808;2023-03-01T14:17:14;98712.31;;;7.42;47.51
64078;BME280;51039;49.696;10.808;2023-03-01T14:20:22;98711.84;;;7.39;47.93
64078;BME280;51039;49.696;10.808;2023-03-01T14:22:57;98718.88;;;7.46;48.20
64078;BME280;51039;49.696;10.808;2023-03-01T14:25:30;98716.31;;;7.38;47.85
64078;BME280;51039;49.696;10.808;2023-03-01T14:28:04;98711.50;;;7.42;48.02
64078;BME280;51039;49.696;10.808;2023-03-01T14:30:50;98714.09;;;7.50;47.81
64078;BME280;51039;49.696;10.808;2023-03-01T14:33:18;98712.31;;;7.42;48.09
64078;BME280;51039;49.696;10.808;2023-03-01T14:35:59;98720.22;;;7.51;48.55
64078;BME280;51039;49.696;10.808;2023-03-01T14:38:29;98713.91;;;7.52;48.22
64078;BME280;51039;49.696;10.808;2023-03-01T14:40:59;98726.63;;;7.48;48.18
64078;BME280;51039;49.696;10.808;2023-03-01T14:43:29;98726.41;;;7.58;48.90